Terminal Aerodrome Forecast
Issued by NWS Wilmington, OH

Current Version | Previous Version | Text Only | Print | Product List | Glossary Off
Versions: 1 2 3 4 5 6 7 8 9 10 11 12 13 14 15 16

000
FTUS41 KILN 272345
TAFDAY
TAF
KDAY 272345Z 2800/2824 15006KT P6SM BKN060
     FM280400 16007KT P6SM BKN150
     FM281200 16010KT P6SM OVC050
     FM281400 17011KT P6SM VCSH OVC024
     FM281700 19012KT 4SM -SHRA BR OVC009
     FM282000 19013G20KT P6SM OVC008
     FM282300 19014G22KT P6SM OVC011=

USA.gov is the U.S. government's official web portal to all federal, state and local government web resources and services.